Detall de PIREP

Printer-friendly versionPDF version

[2013/05/10 16:50:00]
Flight IATA:CT2110
Pilot Number:044
Company ICAO:CAT
Aircraft Type:AT72/F
PAX:43
Departing Airport: LEVC
Destination Airport: LEST
Alternate Airport:LEAS
Online: VATSIM
Route:CENTA A33 FORNO
Flight Level:F230
No Slew and time accel
No pause
Crash detect
Detect pilot in Cockpit between each 30 and 45 minutes
16:50 Zero fuel Weight: 39664 Lbs, Fuel Weight: 5599 Lbs
16:50 VATSIM:LEVC 101630Z 07010KT 9999 FEW030 FEW035TCU 21/13 Q1017 NOSIG
16:50 VATSIM:LEST 101630Z 01010KT 330V060 9999 FEW040 14/04 Q1023 NOSIG
16:50 VOICE CATALONIAN
16:52 Parking Brakes off
17:04 Take-off
17:04 Take off Weight: 45164 Lbs
17:04 Wind: 073º @ 010 Knots Heading: 114º
17:04 POS N39º 29´ 28´´ W000º 29´ 12´´
17:04 Flaps:1 at 140 Knots
17:04 Gear Up: 140 Knots
17:05 Flaps:0 at 130 Knots
17:19 Wind:066º@023 Knots Heading: 328º Ground Speed: 247 Knots Altitude 20026 ft
17:23 TOC
17:23 Fuel Weight: 4858 Lb
17:34 Wind:275º@021 Knots Heading: 296º Ground Speed: 261 Knots Altitude 23106 ft
17:49 Wind:258º@024 Knots Heading: 293º Ground Speed: 260 Knots Altitude 23100 ft
18:04 Wind:270º@018 Knots Heading: 293º Ground Speed: 263 Knots Altitude 23156 ft
18:19 Wind:280º@019 Knots Heading: 302º Ground Speed: 263 Knots Altitude 23166 ft
18:33 TOD
18:33 Fuel Weight: 2821 Lb
18:34 Wind:280º@018 Knots Heading: 311º Ground Speed: 257 Knots Altitude 22342 ft
18:49 Wind:247º@005 Knots Heading: 262º Ground Speed: 194 Knots Altitude 5232 ft
18:52 Gear Down: 177 Knots
18:52 Flaps:1 at 164 Knots
18:53 Flaps:2 at 160 Knots
18:54 TouchDown:Rate -200 ft/min Speed: 116 Knots
18:54 VATSIM:LEST 101830Z 36011KT 320V030 9999 FEW040 12/05 Q1023 NOSIG
18:54 Land
18:54 Wind:288º@005 Knots
18:54 Heading: 345º
18:54 Flight Duration: 01:50
18:54 Landing Weight: 42278 Lbs
18:54 POS N42º 54´ 07´´ W008º 25´ 01´´
18:58 Parking brakes on
18:58 Block to Block Duration: 02:06
18:58 Final Fuel: 2588 Lbls
18:58 Spent Fuel: 3011 Lbls
18:58 Flight Length: 450 NM
18:58 TOD Land Length: 73 NM

Exportar CSV

Powered by Drupal - Modified by Danger4k